sensor_id;sensor_type;location;lat;lon;timestamp;P1;durP1;ratioP1;P2;durP2;ratioP2
56171;SDS011;42052;41.634;-0.946;2024-01-10T00:02:24;2.63;;;1.73;;
56171;SDS011;42052;41.634;-0.946;2024-01-10T00:04:50;2.17;;;1.90;;
56171;SDS011;42052;41.634;-0.946;2024-01-10T00:07:16;2.25;;;1.90;;
56171;SDS011;42052;41.634;-0.946;2024-01-10T00:09:41;3.03;;;2.00;;
56171;SDS011;42052;41.634;-0.946;2024-01-10T00:12:07;3.47;;;1.98;;
56171;SDS011;42052;41.634;-0.946;2024-01-10T00:14:33;2.70;;;1.80;;
56171;SDS011;42052;41.634;-0.946;2024-01-10T00:16:59;3.35;;;2.10;;
56171;SDS011;42052;41.634;-0.946;2024-01-10T00:19:25;3.50;;;1.83;;
56171;SDS011;42052;41.634;-0.946;2024-01-10T00:21:50;1.92;;;1.70;;
56171;SDS011;42052;41.634;-0.946;2024-01-10T00:24:16;3.55;;;1.73;;
56171;SDS011;42052;41.634;-0.946;2024-01-10T00:26:42;2.20;;;1.75;;
56171;SDS011;42052;41.634;-0.946;2024-01-10T00:29:08;2.35;;;1.67;;
56171;SDS011;42052;41.634;-0.946;2024-01-10T00:31:34;2.90;;;1.83;;
56171;SDS011;42052;41.634;-0.946;2024-01-10T00:34:00;2.28;;;1.70;;
56171;SDS011;42052;41.634;-0.946;2024-01-10T00:36:26;3.22;;;1.88;;
56171;SDS011;42052;41.634;-0.946;2024-01-10T00:38:51;2.72;;;1.90;;
56171;SDS011;42052;41.634;-0.946;2024-01-10T00:41:17;3.20;;;1.85;;
56171;SDS011;42052;41.634;-0.946;2024-01-10T00:43:43;2.55;;;1.80;;
56171;SDS011;42052;41.634;-0.946;2024-01-10T00:46:09;3.00;;;1.73;;
56171;SDS011;42052;41.634;-0.946;2024-01-10T00:48:35;2.72;;;1.70;;
56171;SDS011;42052;41.634;-0.946;2024-01-10T00:51:00;2.67;;;1.80;;
56171;SDS011;42052;41.634;-0.946;2024-01-10T00:53:26;2.40;;;1.70;;
56171;SDS011;42052;41.634;-0.946;2024-01-10T00:55:52;2.38;;;1.83;;
56171;SDS011;42052;41.634;-0.946;2024-01-10T00:58:18;2.35;;;1.73;;
56171;SDS011;42052;41.634;-0.946;2024-01-10T01:00:44;3.10;;;1.70;;
56171;SDS011;42052;41.634;-0.946;2024-01-10T01:03:10;2.53;;;1.52;;
56171;SDS011;42052;41.634;-0.946;2024-01-10T01:05:35;2.42;;;1.80;;
56171;SDS011;42052;41.634;-0.946;2024-01-10T01:08:01;3.65;;;1.85;;
56171;SDS011;42052;41.634;-0.946;2024-01-10T01:10:27;3.33;;;1.80;;
56171;SDS011;42052;41.634;-0.946;2024-01-10T01:12:53;2.08;;;1.70;;
56171;SDS011;42052;41.634;-0.946;2024-01-10T01:15:19;2.22;;;1.77;;
56171;SDS011;42052;41.634;-0.946;2024-01-10T01:17:44;2.97;;;1.70;;
56171;SDS011;42052;41.634;-0.946;2024-01-10T01:20:10;3.25;;;1.67;;
56171;SDS011;42052;41.634;-0.946;2024-01-10T01:22:36;2.88;;;1.85;;
56171;SDS011;42052;41.634;-0.946;2024-01-10T01:25:02;2.70;;;1.80;;
56171;SDS011;42052;41.634;-0.946;2024-01-10T01:27:28;2.55;;;1.65;;
56171;SDS011;42052;41.634;-0.946;2024-01-10T01:29:54;2.53;;;1.80;;
56171;SDS011;42052;41.634;-0.946;2024-01-10T01:32:20;3.40;;;1.55;;
56171;SDS011;42052;41.634;-0.946;2024-01-10T01:34:46;2.40;;;1.50;;
56171;SDS011;42052;41.634;-0.946;2024-01-10T01:37:12;1.55;;;1.45;;
56171;SDS011;42052;41.634;-0.946;2024-01-10T01:39:38;3.95;;;1.77;;
56171;SDS011;42052;41.634;-0.946;2024-01-10T01:42:04;3.75;;;1.58;;
56171;SDS011;42052;41.634;-0.946;2024-01-10T01:44:30;4.60;;;1.58;;
56171;SDS011;42052;41.634;-0.946;2024-01-10T01:46:57;1.60;;;1.50;;
56171;SDS011;42052;41.634;-0.946;2024-01-10T01:49:23;2.03;;;1.70;;
56171;SDS011;42052;41.634;-0.946;2024-01-10T01:51:50;2.55;;;1.50;;
56171;SDS011;42052;41.634;-0.946;2024-01-10T01:54:17;4.20;;;1.65;;
56171;SDS011;42052;41.634;-0.946;2024-01-10T01:56:45;2.53;;;1.48;;
56171;SDS011;42052;41.634;-0.946;2024-01-10T01:59:11;2.85;;;1.35;;
56171;SDS011;42052;41.634;-0.946;2024-01-10T02:01:38;1.95;;;1.42;;
56171;SDS011;42052;41.634;-0.946;2024-01-10T02:04:05;2.33;;;1.67;;
56171;SDS011;42052;41.634;-0.946;2024-01-10T02:06:32;2.30;;;1.50;;
56171;SDS011;42052;41.634;-0.946;2024-01-10T02:08:57;2.25;;;1.55;;
56171;SDS011;42052;41.634;-0.946;2024-01-10T02:11:24;3.58;;;1.65;;
56171;SDS011;42052;41.634;-0.946;2024-01-10T02:13:50;2.65;;;1.65;;
56171;SDS011;42052;41.634;-0.946;2024-01-10T02:16:19;2.95;;;1.65;;
56171;SDS011;42052;41.634;-0.946;2024-01-10T02:18:46;2.03;;;1.60;;
56171;SDS011;42052;41.634;-0.946;2024-01-10T02:21:12;2.70;;;1.58;;
56171;SDS011;42052;41.634;-0.946;2024-01-10T02:23:38;3.80;;;1.80;;
56171;SDS011;42052;41.634;-0.946;2024-01-10T02:26:04;2.65;;;1.65;;
56171;SDS011;42052;41.634;-0.946;2024-01-10T02:28:30;2.97;;;1.63;;
56171;SDS011;42052;41.634;-0.946;2024-01-10T02:30:55;2.45;;;1.60;;
56171;SDS011;42052;41.634;-0.946;2024-01-10T02:33:23;4.07;;;1.23;;
56171;SDS011;42052;41.634;-0.946;2024-01-10T02:35:50;4.20;;;1.50;;
56171;SDS011;42052;41.634;-0.946;2024-01-10T02:38:16;4.05;;;1.80;;
56171;SDS011;42052;41.634;-0.946;2024-01-10T02:40:45;1.92;;;1.55;;
56171;SDS011;42052;41.634;-0.946;2024-01-10T02:43:11;2.17;;;1.52;;
56171;SDS011;42052;41.634;-0.946;2024-01-10T02:45:37;2.15;;;1.58;;
56171;SDS011;42052;41.634;-0.946;2024-01-10T02:48:03;1.77;;;1.40;;
56171;SDS011;42052;41.634;-0.946;2024-01-10T02:50:29;1.77;;;1.40;;
56171;SDS011;42052;41.634;-0.946;2024-01-10T02:52:55;2.05;;;1.50;;
56171;SDS011;42052;41.634;-0.946;2024-01-10T02:55:20;1.77;;;1.58;;
56171;SDS011;42052;41.634;-0.946;2024-01-10T02:57:46;3.28;;;1.40;;
56171;SDS011;42052;41.634;-0.946;2024-01-10T03:00:12;2.20;;;1.60;;
56171;SDS011;42052;41.634;-0.946;2024-01-10T03:02:38;3.25;;;1.40;;
56171;SDS011;42052;41.634;-0.946;2024-01-10T03:05:04;2.83;;;1.40;;
56171;SDS011;42052;41.634;-0.946;2024-01-10T03:07:30;2.97;;;1.38;;
56171;SDS011;42052;41.634;-0.946;2024-01-10T03:09:56;2.33;;;1.40;;
56171;SDS011;42052;41.634;-0.946;2024-01-10T03:12:22;2.42;;;1.50;;
56171;SDS011;42052;41.634;-0.946;2024-01-10T03:14:48;1.90;;;1.50;;
56171;SDS011;42052;41.634;-0.946;2024-01-10T03:17:14;1.60;;;1.38;;
56171;SDS011;42052;41.634;-0.946;2024-01-10T03:19:40;1.80;;;1.35;;
56171;SDS011;42052;41.634;-0.946;2024-01-10T03:22:10;2.13;;;1.40;;
56171;SDS011;42052;41.634;-0.946;2024-01-10T03:24:37;1.50;;;1.20;;
56171;SDS011;42052;41.634;-0.946;2024-01-10T03:27:03;1.40;;;1.20;;
56171;SDS011;42052;41.634;-0.946;2024-01-10T03:29:29;1.20;;;1.10;;
56171;SDS011;42052;41.634;-0.946;2024-01-10T03:31:55;1.83;;;1.20;;
56171;SDS011;42052;41.634;-0.946;2024-01-10T03:34:21;2.33;;;1.30;;
56171;SDS011;42052;41.634;-0.946;2024-01-10T03:36:47;1.73;;;1.38;;
56171;SDS011;42052;41.634;-0.946;2024-01-10T03:39:13;2.05;;;1.40;;
56171;SDS011;42052;41.634;-0.946;2024-01-10T03:41:39;3.35;;;1.27;;
56171;SDS011;42052;41.634;-0.946;2024-01-10T03:44:05;2.15;;;1.23;;
56171;SDS011;42052;41.634;-0.946;2024-01-10T03:46:31;2.55;;;1.10;;
56171;SDS011;42052;41.634;-0.946;2024-01-10T03:48:57;2.03;;;1.30;;
56171;SDS011;42052;41.634;-0.946;2024-01-10T03:51:22;1.60;;;1.13;;
56171;SDS011;42052;41.634;-0.946;2024-01-10T03:53:48;3.40;;;1.40;;
56171;SDS011;42052;41.634;-0.946;2024-01-10T03:56:14;2.15;;;1.33;;
56171;SDS011;42052;41.634;-0.946;2024-01-10T03:58:40;2.67;;;1.10;;
56171;SDS011;42052;41.634;-0.946;2024-01-10T04:01:09;1.92;;;1.20;;
56171;SDS011;42052;41.634;-0.946;2024-01-10T04:03:35;1.25;;;1.00;;
56171;SDS011;42052;41.634;-0.946;2024-01-10T04:06:01;1.65;;;1.40;;
56171;SDS011;42052;41.634;-0.946;2024-01-10T04:08:28;1.52;;;1.27;;
56171;SDS011;42052;41.634;-0.946;2024-01-10T04:10:54;2.45;;;1.30;;
56171;SDS011;42052;41.634;-0.946;2024-01-10T04:13:20;2.55;;;1.35;;
56171;SDS011;42052;41.634;-0.946;2024-01-10T04:15:46;1.73;;;1.10;;
56171;SDS011;42052;41.634;-0.946;2024-01-10T04:18:12;1.60;;;1.25;;
56171;SDS011;42052;41.634;-0.946;2024-01-10T04:20:38;1.92;;;1.27;;
56171;SDS011;42052;41.634;-0.946;2024-01-10T04:23:03;2.25;;;1.15;;
56171;SDS011;42052;41.634;-0.946;2024-01-10T04:25:29;1.83;;;1.27;;
56171;SDS011;42052;41.634;-0.946;2024-01-10T04:27:55;1.90;;;1.05;;
56171;SDS011;42052;41.634;-0.946;2024-01-10T04:30:22;1.73;;;1.27;;
56171;SDS011;42052;41.634;-0.946;2024-01-10T04:32:48;1.23;;;1.13;;
56171;SDS011;42052;41.634;-0.946;2024-01-10T04:35:14;3.08;;;1.00;;
56171;SDS011;42052;41.634;-0.946;2024-01-10T04:37:40;1.63;;;1.27;;
56171;SDS011;42052;41.634;-0.946;2024-01-10T04:40:06;1.25;;;1.15;;
56171;SDS011;42052;41.634;-0.946;2024-01-10T04:42:32;2.17;;;1.30;;
56171;SDS011;42052;41.634;-0.946;2024-01-10T04:44:58;1.20;;;1.00;;
56171;SDS011;42052;41.634;-0.946;2024-01-10T04:47:24;2.85;;;1.10;;
56171;SDS011;42052;41.634;-0.946;2024-01-10T04:49:50;1.13;;;1.02;;
56171;SDS011;42052;41.634;-0.946;2024-01-10T04:52:16;2.53;;;1.25;;
56171;SDS011;42052;41.634;-0.946;2024-01-10T04:54:41;3.10;;;1.20;;
56171;SDS011;42052;41.634;-0.946;2024-01-10T04:57:07;1.60;;;1.20;;
56171;SDS011;42052;41.634;-0.946;2024-01-10T04:59:33;1.50;;;1.10;;
56171;SDS011;42052;41.634;-0.946;2024-01-10T05:01:59;2.00;;;1.27;;
56171;SDS011;42052;41.634;-0.946;2024-01-10T05:04:25;1.10;;;1.00;;
56171;SDS011;42052;41.634;-0.946;2024-01-10T05:06:51;2.65;;;1.13;;
56171;SDS011;42052;41.634;-0.946;2024-01-10T05:09:17;1.67;;;1.20;;
56171;SDS011;42052;41.634;-0.946;2024-01-10T05:11:43;3.03;;;1.30;;
56171;SDS011;42052;41.634;-0.946;2024-01-10T05:14:12;1.85;;;1.00;;
56171;SDS011;42052;41.634;-0.946;2024-01-10T05:16:38;1.70;;;1.25;;
56171;SDS011;42052;41.634;-0.946;2024-01-10T05:19:04;1.55;;;1.10;;
56171;SDS011;42052;41.634;-0.946;2024-01-10T05:21:30;2.83;;;1.20;;
56171;SDS011;42052;41.634;-0.946;2024-01-10T05:23:57;2.10;;;1.27;;
56171;SDS011;42052;41.634;-0.946;2024-01-10T05:26:23;2.83;;;1.40;;
56171;SDS011;42052;41.634;-0.946;2024-01-10T05:28:49;2.55;;;1.42;;
56171;SDS011;42052;41.634;-0.946;2024-01-10T05:31:16;2.03;;;1.10;;
56171;SDS011;42052;41.634;-0.946;2024-01-10T05:33:42;1.40;;;1.10;;
56171;SDS011;42052;41.634;-0.946;2024-01-10T05:36:08;2.22;;;1.30;;
56171;SDS011;42052;41.634;-0.946;2024-01-10T05:38:37;2.05;;;1.10;;
56171;SDS011;42052;41.634;-0.946;2024-01-10T05:41:05;2.25;;;1.30;;
56171;SDS011;42052;41.634;-0.946;2024-01-10T05:43:30;2.08;;;1.40;;
56171;SDS011;42052;41.634;-0.946;2024-01-10T05:45:59;1.35;;;1.10;;
56171;SDS011;42052;41.634;-0.946;2024-01-10T05:48:25;1.40;;;1.10;;
56171;SDS011;42052;41.634;-0.946;2024-01-10T05:50:51;3.58;;;1.30;;
56171;SDS011;42052;41.634;-0.946;2024-01-10T05:53:17;1.20;;;1.10;;
56171;SDS011;42052;41.634;-0.946;2024-01-10T05:55:43;1.60;;;1.05;;
56171;SDS011;42052;41.634;-0.946;2024-01-10T05:58:10;1.80;;;1.30;;
56171;SDS011;42052;41.634;-0.946;2024-01-10T06:00:36;2.40;;;1.15;;
56171;SDS011;42052;41.634;-0.946;2024-01-10T06:03:03;1.63;;;1.27;;
56171;SDS011;42052;41.634;-0.946;2024-01-10T06:05:29;3.17;;;1.25;;
56171;SDS011;42052;41.634;-0.946;2024-01-10T06:07:57;1.42;;;1.10;;
56171;SDS011;42052;41.634;-0.946;2024-01-10T06:10:23;3.97;;;1.33;;
56171;SDS011;42052;41.634;-0.946;2024-01-10T06:12:49;2.03;;;1.15;;
56171;SDS011;42052;41.634;-0.946;2024-01-10T06:15:15;1.70;;;1.17;;
56171;SDS011;42052;41.634;-0.946;2024-01-10T06:17:41;1.20;;;1.10;;
56171;SDS011;42052;41.634;-0.946;2024-01-10T06:20:07;2.42;;;1.00;;
56171;SDS011;42052;41.634;-0.946;2024-01-10T06:22:34;2.22;;;1.20;;
56171;SDS011;42052;41.634;-0.946;2024-01-10T06:24:59;1.60;;;1.40;;
56171;SDS011;42052;41.634;-0.946;2024-01-10T06:27:25;2.90;;;1.20;;
56171;SDS011;42052;41.634;-0.946;2024-01-10T06:29:51;2.17;;;1.45;;
56171;SDS011;42052;41.634;-0.946;2024-01-10T06:32:17;2.33;;;1.27;;
56171;SDS011;42052;41.634;-0.946;2024-01-10T06:34:43;3.38;;;1.50;;
56171;SDS011;42052;41.634;-0.946;2024-01-10T06:37:10;2.70;;;1.38;;
56171;SDS011;42052;41.634;-0.946;2024-01-10T06:39:36;4.53;;;1.67;;
56171;SDS011;42052;41.634;-0.946;2024-01-10T06:42:02;1.67;;;1.40;;
56171;SDS011;42052;41.634;-0.946;2024-01-10T06:44:31;2.97;;;1.52;;
56171;SDS011;42052;41.634;-0.946;2024-01-10T06:46:57;5.22;;;1.60;;
56171;SDS011;42052;41.634;-0.946;2024-01-10T06:49:23;7.22;;;1.90;;
56171;SDS011;42052;41.634;-0.946;2024-01-10T06:51:49;4.90;;;1.60;;
56171;SDS011;42052;41.634;-0.946;2024-01-10T06:54:15;5.40;;;1.77;;
56171;SDS011;42052;41.634;-0.946;2024-01-10T06:56:40;6.95;;;1.75;;
56171;SDS011;42052;41.634;-0.946;2024-01-10T06:59:06;4.18;;;1.67;;
56171;SDS011;42052;41.634;-0.946;2024-01-10T07:01:32;4.70;;;1.70;;
56171;SDS011;42052;41.634;-0.946;2024-01-10T07:03:58;5.45;;;1.88;;
56171;SDS011;42052;41.634;-0.946;2024-01-10T07:06:24;3.72;;;1.67;;
56171;SDS011;42052;41.634;-0.946;2024-01-10T07:08:50;4.93;;;1.83;;
56171;SDS011;42052;41.634;-0.946;2024-01-10T07:11:16;6.13;;;2.05;;
56171;SDS011;42052;41.634;-0.946;2024-01-10T07:13:44;5.10;;;1.95;;
56171;SDS011;42052;41.634;-0.946;2024-01-10T07:16:10;5.88;;;2.10;;
56171;SDS011;42052;41.634;-0.946;2024-01-10T07:18:36;6.13;;;1.83;;
56171;SDS011;42052;41.634;-0.946;2024-01-10T07:21:02;5.20;;;1.80;;
56171;SDS011;42052;41.634;-0.946;2024-01-10T07:23:28;4.22;;;1.90;;
56171;SDS011;42052;41.634;-0.946;2024-01-10T07:25:57;4.03;;;1.80;;
56171;SDS011;42052;41.634;-0.946;2024-01-10T07:28:23;3.78;;;1.80;;
56171;SDS011;42052;41.634;-0.946;2024-01-10T07:30:49;3.90;;;1.70;;
56171;SDS011;42052;41.634;-0.946;2024-01-10T07:33:15;3.92;;;1.70;;
56171;SDS011;42052;41.634;-0.946;2024-01-10T07:35:40;3.58;;;1.48;;
56171;SDS011;42052;41.634;-0.946;2024-01-10T07:38:07;3.78;;;1.73;;
56171;SDS011;42052;41.634;-0.946;2024-01-10T07:40:32;4.25;;;1.80;;
56171;SDS011;42052;41.634;-0.946;2024-01-10T07:42:59;4.88;;;1.67;;
56171;SDS011;42052;41.634;-0.946;2024-01-10T07:45:25;5.30;;;1.90;;
56171;SDS011;42052;41.634;-0.946;2024-01-10T07:47:51;4.78;;;1.90;;
56171;SDS011;42052;41.634;-0.946;2024-01-10T07:50:17;4.00;;;1.63;;
56171;SDS011;42052;41.634;-0.946;2024-01-10T07:52:44;4.57;;;1.90;;
56171;SDS011;42052;41.634;-0.946;2024-01-10T07:55:11;2.50;;;1.58;;
56171;SDS011;42052;41.634;-0.946;2024-01-10T07:57:37;4.53;;;1.92;;
56171;SDS011;42052;41.634;-0.946;2024-01-10T08:00:06;3.83;;;1.75;;
56171;SDS011;42052;41.634;-0.946;2024-01-10T08:02:35;2.57;;;1.77;;
56171;SDS011;42052;41.634;-0.946;2024-01-10T08:05:02;3.22;;;1.60;;
56171;SDS011;42052;41.634;-0.946;2024-01-10T08:07:34;4.60;;;1.83;;
56171;SDS011;42052;41.634;-0.946;2024-01-10T08:10:08;3.67;;;1.77;;
56171;SDS011;42052;41.634;-0.946;2024-01-10T08:12:37;3.88;;;1.67;;
56171;SDS011;42052;41.634;-0.946;2024-01-10T08:15:06;2.83;;;1.60;;
56171;SDS011;42052;41.634;-0.946;2024-01-10T08:17:32;5.43;;;1.70;;
56171;SDS011;42052;41.634;-0.946;2024-01-10T08:19:59;3.63;;;1.98;;
56171;SDS011;42052;41.634;-0.946;2024-01-10T08:22:26;4.50;;;1.90;;
56171;SDS011;42052;41.634;-0.946;2024-01-10T08:24:52;4.68;;;1.88;;
56171;SDS011;42052;41.634;-0.946;2024-01-10T08:27:18;3.58;;;1.60;;
56171;SDS011;42052;41.634;-0.946;2024-01-10T08:29:44;2.67;;;1.90;;
56171;SDS011;42052;41.634;-0.946;2024-01-10T08:32:10;2.63;;;1.58;;
56171;SDS011;42052;41.634;-0.946;2024-01-10T08:34:36;2.63;;;1.77;;
56171;SDS011;42052;41.634;-0.946;2024-01-10T08:37:02;2.85;;;1.77;;
56171;SDS011;42052;41.634;-0.946;2024-01-10T08:39:28;3.75;;;1.92;;
56171;SDS011;42052;41.634;-0.946;2024-01-10T08:41:56;3.55;;;1.80;;
56171;SDS011;42052;41.634;-0.946;2024-01-10T08:44:22;3.08;;;1.98;;
56171;SDS011;42052;41.634;-0.946;2024-01-10T08:46:48;4.82;;;1.88;;
56171;SDS011;42052;41.634;-0.946;2024-01-10T08:49:16;4.18;;;1.95;;
56171;SDS011;42052;41.634;-0.946;2024-01-10T08:51:42;4.03;;;1.85;;
56171;SDS011;42052;41.634;-0.946;2024-01-10T08:54:09;3.55;;;2.00;;
56171;SDS011;42052;41.634;-0.946;2024-01-10T08:56:37;2.70;;;1.90;;
56171;SDS011;42052;41.634;-0.946;2024-01-10T08:59:03;3.97;;;2.30;;
56171;SDS011;42052;41.634;-0.946;2024-01-10T09:01:29;2.58;;;2.05;;
56171;SDS011;42052;41.634;-0.946;2024-01-10T09:03:55;2.30;;;1.90;;
56171;SDS011;42052;41.634;-0.946;2024-01-10T09:06:21;3.13;;;2.15;;
56171;SDS011;42052;41.634;-0.946;2024-01-10T09:08:47;4.72;;;2.20;;
56171;SDS011;42052;41.634;-0.946;2024-01-10T09:11:13;7.40;;;2.05;;
56171;SDS011;42052;41.634;-0.946;2024-01-10T09:13:38;2.92;;;2.25;;
56171;SDS011;42052;41.634;-0.946;2024-01-10T09:16:05;3.85;;;1.90;;
56171;SDS011;42052;41.634;-0.946;2024-01-10T09:18:31;3.75;;;2.10;;
56171;SDS011;42052;41.634;-0.946;2024-01-10T09:20:57;2.90;;;2.15;;
56171;SDS011;42052;41.634;-0.946;2024-01-10T09:23:22;5.35;;;2.20;;
56171;SDS011;42052;41.634;-0.946;2024-01-10T09:25:48;2.72;;;2.03;;
56171;SDS011;42052;41.634;-0.946;2024-01-10T09:28:14;3.67;;;2.03;;
56171;SDS011;42052;41.634;-0.946;2024-01-10T09:30:40;4.70;;;2.17;;
56171;SDS011;42052;41.634;-0.946;2024-01-10T09:33:06;3.00;;;1.90;;
56171;SDS011;42052;41.634;-0.946;2024-01-10T09:35:32;3.38;;;1.98;;
56171;SDS011;42052;41.634;-0.946;2024-01-10T09:37:58;3.97;;;2.03;;
56171;SDS011;42052;41.634;-0.946;2024-01-10T09:40:25;3.28;;;2.10;;
56171;SDS011;42052;41.634;-0.946;2024-01-10T09:42:53;6.18;;;2.60;;
56171;SDS011;42052;41.634;-0.946;2024-01-10T09:45:20;5.22;;;1.85;;
56171;SDS011;42052;41.634;-0.946;2024-01-10T09:47:55;2.92;;;2.00;;
56171;SDS011;42052;41.634;-0.946;2024-01-10T09:50:22;4.60;;;1.95;;
56171;SDS011;42052;41.634;-0.946;2024-01-10T09:52:51;5.38;;;2.20;;
56171;SDS011;42052;41.634;-0.946;2024-01-10T09:55:20;2.78;;;1.90;;
56171;SDS011;42052;41.634;-0.946;2024-01-10T09:57:47;2.78;;;1.98;;
56171;SDS011;42052;41.634;-0.946;2024-01-10T10:00:14;2.90;;;2.00;;
56171;SDS011;42052;41.634;-0.946;2024-01-10T10:02:41;3.53;;;1.92;;
56171;SDS011;42052;41.634;-0.946;2024-01-10T10:05:08;4.95;;;2.10;;
56171;SDS011;42052;41.634;-0.946;2024-01-10T10:10:11;3.47;;;2.20;;
56171;SDS011;42052;41.634;-0.946;2024-01-10T10:12:41;2.90;;;2.22;;
56171;SDS011;42052;41.634;-0.946;2024-01-10T10:15:17;3.63;;;2.10;;
56171;SDS011;42052;41.634;-0.946;2024-01-10T10:17:45;3.20;;;2.08;;
56171;SDS011;42052;41.634;-0.946;2024-01-10T10:25:25;3.20;;;2.25;;
56171;SDS011;42052;41.634;-0.946;2024-01-10T10:27:59;4.88;;;2.10;;
56171;SDS011;42052;41.634;-0.946;2024-01-10T10:30:26;6.63;;;2.28;;
56171;SDS011;42052;41.634;-0.946;2024-01-10T10:32:52;4.53;;;2.20;;
56171;SDS011;42052;41.634;-0.946;2024-01-10T10:35:19;5.05;;;2.30;;
56171;SDS011;42052;41.634;-0.946;2024-01-10T10:37:47;2.58;;;1.88;;
56171;SDS011;42052;41.634;-0.946;2024-01-10T10:40:14;2.47;;;1.90;;
56171;SDS011;42052;41.634;-0.946;2024-01-10T10:42:43;2.95;;;2.03;;
56171;SDS011;42052;41.634;-0.946;2024-01-10T10:45:15;3.60;;;2.25;;
56171;SDS011;42052;41.634;-0.946;2024-01-10T10:47:45;3.78;;;2.30;;
56171;SDS011;42052;41.634;-0.946;2024-01-10T10:50:19;3.33;;;2.13;;
56171;SDS011;42052;41.634;-0.946;2024-01-10T10:52:48;2.80;;;2.10;;
56171;SDS011;42052;41.634;-0.946;2024-01-10T10:55:15;3.97;;;2.30;;
56171;SDS011;42052;41.634;-0.946;2024-01-10T10:57:45;2.83;;;2.03;;
56171;SDS011;42052;41.634;-0.946;2024-01-10T11:00:13;4.90;;;2.15;;
56171;SDS011;42052;41.634;-0.946;2024-01-10T11:02:40;4.30;;;2.05;;
56171;SDS011;42052;41.634;-0.946;2024-01-10T11:05:09;5.28;;;1.98;;
56171;SDS011;42052;41.634;-0.946;2024-01-10T11:07:39;3.25;;;2.00;;
56171;SDS011;42052;41.634;-0.946;2024-01-10T11:10:08;2.80;;;2.00;;
56171;SDS011;42052;41.634;-0.946;2024-01-10T11:19:04;3.53;;;2.17;;
56171;SDS011;42052;41.634;-0.946;2024-01-10T11:22:04;4.18;;;1.90;;
56171;SDS011;42052;41.634;-0.946;2024-01-10T11:24:49;2.78;;;2.00;;
56171;SDS011;42052;41.634;-0.946;2024-01-10T11:27:16;3.08;;;2.03;;
56171;SDS011;42052;41.634;-0.946;2024-01-10T11:29:42;2.65;;;1.80;;
56171;SDS011;42052;41.634;-0.946;2024-01-10T11:32:14;3.03;;;2.05;;
56171;SDS011;42052;41.634;-0.946;2024-01-10T11:37:45;2.53;;;1.98;;
56171;SDS011;42052;41.634;-0.946;2024-01-10T11:40:15;2.08;;;1.60;;
56171;SDS011;42052;41.634;-0.946;2024-01-10T11:42:48;2.17;;;1.88;;
56171;SDS011;42052;41.634;-0.946;2024-01-10T11:47:59;3.17;;;2.05;;
56171;SDS011;42052;41.634;-0.946;2024-01-10T11:50:26;3.25;;;1.90;;
56171;SDS011;42052;41.634;-0.946;2024-01-10T11:52:53;3.67;;;1.77;;
56171;SDS011;42052;41.634;-0.946;2024-01-10T11:58:19;3.22;;;2.05;;
56171;SDS011;42052;41.634;-0.946;2024-01-10T12:00:45;3.72;;;1.80;;
56171;SDS011;42052;41.634;-0.946;2024-01-10T12:03:12;2.97;;;2.00;;
56171;SDS011;42052;41.634;-0.946;2024-01-10T12:05:39;2.05;;;1.63;;
56171;SDS011;42052;41.634;-0.946;2024-01-10T12:08:09;3.10;;;1.88;;
56171;SDS011;42052;41.634;-0.946;2024-01-10T12:10:35;3.47;;;1.73;;
56171;SDS011;42052;41.634;-0.946;2024-01-10T12:13:05;2.50;;;1.60;;
56171;SDS011;42052;41.634;-0.946;2024-01-10T12:15:31;3.75;;;1.70;;
56171;SDS011;42052;41.634;-0.946;2024-01-10T12:17:57;3.70;;;1.90;;
56171;SDS011;42052;41.634;-0.946;2024-01-10T12:20:22;2.70;;;1.65;;
56171;SDS011;42052;41.634;-0.946;2024-01-10T12:22:48;3.13;;;1.80;;
56171;SDS011;42052;41.634;-0.946;2024-01-10T12:25:14;4.57;;;1.70;;
56171;SDS011;42052;41.634;-0.946;2024-01-10T12:27:40;2.70;;;1.83;;
56171;SDS011;42052;41.634;-0.946;2024-01-10T12:30:06;2.97;;;1.67;;
56171;SDS011;42052;41.634;-0.946;2024-01-10T12:32:33;3.28;;;2.00;;
56171;SDS011;42052;41.634;-0.946;2024-01-10T12:35:02;3.05;;;1.80;;
56171;SDS011;42052;41.634;-0.946;2024-01-10T12:37:29;1.65;;;1.50;;
56171;SDS011;42052;41.634;-0.946;2024-01-10T12:39:58;3.92;;;1.77;;
56171;SDS011;42052;41.634;-0.946;2024-01-10T12:42:24;2.50;;;1.90;;
56171;SDS011;42052;41.634;-0.946;2024-01-10T12:44:50;2.53;;;1.70;;
56171;SDS011;42052;41.634;-0.946;2024-01-10T12:47:19;4.65;;;1.65;;
56171;SDS011;42052;41.634;-0.946;2024-01-10T12:49:46;2.97;;;1.85;;
56171;SDS011;42052;41.634;-0.946;2024-01-10T12:52:12;2.65;;;1.88;;
56171;SDS011;42052;41.634;-0.946;2024-01-10T12:54:39;2.20;;;1.60;;
56171;SDS011;42052;41.634;-0.946;2024-01-10T12:57:05;2.42;;;1.90;;
56171;SDS011;42052;41.634;-0.946;2024-01-10T12:59:34;2.35;;;1.60;;
56171;SDS011;42052;41.634;-0.946;2024-01-10T13:02:06;1.73;;;1.60;;
56171;SDS011;42052;41.634;-0.946;2024-01-10T13:04:32;2.45;;;1.80;;
56171;SDS011;42052;41.634;-0.946;2024-01-10T13:06:58;3.60;;;1.80;;
56171;SDS011;42052;41.634;-0.946;2024-01-10T13:09:26;1.88;;;1.70;;
56171;SDS011;42052;41.634;-0.946;2024-01-10T13:11:52;2.53;;;2.00;;
56171;SDS011;42052;41.634;-0.946;2024-01-10T13:14:17;2.10;;;1.80;;
56171;SDS011;42052;41.634;-0.946;2024-01-10T13:16:44;2.08;;;1.88;;
56171;SDS011;42052;41.634;-0.946;2024-01-10T13:19:09;3.70;;;1.85;;
56171;SDS011;42052;41.634;-0.946;2024-01-10T13:21:35;2.47;;;1.83;;
56171;SDS011;42052;41.634;-0.946;2024-01-10T13:24:02;2.67;;;1.63;;
56171;SDS011;42052;41.634;-0.946;2024-01-10T13:26:29;3.13;;;1.90;;
56171;SDS011;42052;41.634;-0.946;2024-01-10T13:28:55;2.40;;;1.90;;
56171;SDS011;42052;41.634;-0.946;2024-01-10T13:31:21;2.22;;;1.70;;
56171;SDS011;42052;41.634;-0.946;2024-01-10T13:33:47;2.95;;;2.03;;
56171;SDS011;42052;41.634;-0.946;2024-01-10T13:36:13;1.92;;;1.65;;
56171;SDS011;42052;41.634;-0.946;2024-01-10T13:38:39;2.20;;;1.73;;
56171;SDS011;42052;41.634;-0.946;2024-01-10T13:41:05;2.22;;;1.70;;
56171;SDS011;42052;41.634;-0.946;2024-01-10T13:43:31;3.85;;;2.30;;
56171;SDS011;42052;41.634;-0.946;2024-01-10T13:45:57;2.58;;;1.90;;
56171;SDS011;42052;41.634;-0.946;2024-01-10T13:48:23;2.25;;;1.85;;
56171;SDS011;42052;41.634;-0.946;2024-01-10T13:50:49;2.03;;;1.70;;
56171;SDS011;42052;41.634;-0.946;2024-01-10T13:53:14;3.03;;;1.70;;
56171;SDS011;42052;41.634;-0.946;2024-01-10T13:55:42;2.80;;;1.90;;
56171;SDS011;42052;41.634;-0.946;2024-01-10T13:58:09;2.50;;;1.98;;
56171;SDS011;42052;41.634;-0.946;2024-01-10T14:00:35;2.17;;;1.80;;
56171;SDS011;42052;41.634;-0.946;2024-01-10T14:03:02;1.95;;;1.55;;
56171;SDS011;42052;41.634;-0.946;2024-01-10T14:05:29;3.28;;;1.92;;
56171;SDS011;42052;41.634;-0.946;2024-01-10T14:07:56;2.85;;;1.73;;
56171;SDS011;42052;41.634;-0.946;2024-01-10T14:10:22;2.00;;;1.50;;
56171;SDS011;42052;41.634;-0.946;2024-01-10T14:12:47;2.17;;;1.80;;
56171;SDS011;42052;41.634;-0.946;2024-01-10T14:15:13;1.98;;;1.70;;
56171;SDS011;42052;41.634;-0.946;2024-01-10T14:17:40;2.33;;;1.92;;
56171;SDS011;42052;41.634;-0.946;2024-01-10T14:20:06;3.47;;;1.90;;
56171;SDS011;42052;41.634;-0.946;2024-01-10T14:22:35;2.38;;;1.80;;
56171;SDS011;42052;41.634;-0.946;2024-01-10T14:25:01;3.38;;;1.95;;
56171;SDS011;42052;41.634;-0.946;2024-01-10T14:27:27;1.92;;;1.60;;
56171;SDS011;42052;41.634;-0.946;2024-01-10T14:29:53;3.35;;;1.70;;
56171;SDS011;42052;41.634;-0.946;2024-01-10T14:32:19;3.88;;;1.90;;
56171;SDS011;42052;41.634;-0.946;2024-01-10T14:34:47;3.63;;;1.70;;
56171;SDS011;42052;41.634;-0.946;2024-01-10T14:37:12;2.63;;;1.67;;
56171;SDS011;42052;41.634;-0.946;2024-01-10T14:39:38;2.67;;;1.73;;
56171;SDS011;42052;41.634;-0.946;2024-01-10T14:42:08;3.55;;;1.83;;
56171;SDS011;42052;41.634;-0.946;2024-01-10T14:44:36;2.85;;;1.90;;
56171;SDS011;42052;41.634;-0.946;2024-01-10T14:47:02;3.63;;;1.90;;
56171;SDS011;42052;41.634;-0.946;2024-01-10T14:49:29;1.85;;;1.60;;
56171;SDS011;42052;41.634;-0.946;2024-01-10T14:51:56;2.20;;;1.70;;
56171;SDS011;42052;41.634;-0.946;2024-01-10T14:54:22;2.47;;;1.73;;